sensor_id;sensor_type;location;lat;lon;timestamp;P1;durP1;ratioP1;P2;durP2;ratioP2
3543;SDS011;1786;52.870;9.578;2023-03-21T00:00:39;25.10;;;19.63;;
3543;SDS011;1786;52.870;9.578;2023-03-21T00:03:05;28.03;;;20.77;;
3543;SDS011;1786;52.870;9.578;2023-03-21T00:05:33;24.60;;;20.70;;
3543;SDS011;1786;52.870;9.578;2023-03-21T00:07:59;23.60;;;21.00;;
3543;SDS011;1786;52.870;9.578;2023-03-21T00:10:28;26.67;;;21.13;;
3543;SDS011;1786;52.870;9.578;2023-03-21T00:13:08;23.43;;;20.10;;
3543;SDS011;1786;52.870;9.578;2023-03-21T00:15:38;22.37;;;19.87;;
3543;SDS011;1786;52.870;9.578;2023-03-21T00:18:29;25.77;;;19.90;;
3543;SDS011;1786;52.870;9.578;2023-03-21T00:20:59;24.27;;;20.07;;
3543;SDS011;1786;52.870;9.578;2023-03-21T00:23:46;23.60;;;19.80;;
3543;SDS011;1786;52.870;9.578;2023-03-21T00:26:13;22.93;;;20.50;;
3543;SDS011;1786;52.870;9.578;2023-03-21T00:28:40;26.10;;;20.57;;
3543;SDS011;1786;52.870;9.578;2023-03-21T00:31:08;24.67;;;20.90;;
3543;SDS011;1786;52.870;9.578;2023-03-21T00:33:34;27.50;;;20.57;;
3543;SDS011;1786;52.870;9.578;2023-03-21T00:36:02;28.20;;;22.40;;
3543;SDS011;1786;52.870;9.578;2023-03-21T00:38:32;29.33;;;22.60;;
3543;SDS011;1786;52.870;9.578;2023-03-21T00:40:59;23.50;;;21.00;;
3543;SDS011;1786;52.870;9.578;2023-03-21T00:43:43;26.90;;;21.57;;
3543;SDS011;1786;52.870;9.578;2023-03-21T00:46:09;29.90;;;21.43;;
3543;SDS011;1786;52.870;9.578;2023-03-21T00:48:38;31.33;;;22.13;;
3543;SDS011;1786;52.870;9.578;2023-03-21T00:51:10;27.90;;;21.33;;
3543;SDS011;1786;52.870;9.578;2023-03-21T00:53:37;28.97;;;21.90;;
3543;SDS011;1786;52.870;9.578;2023-03-21T00:56:04;29.83;;;22.70;;
3543;SDS011;1786;52.870;9.578;2023-03-21T00:58:31;29.20;;;22.63;;
3543;SDS011;1786;52.870;9.578;2023-03-21T01:00:57;30.40;;;22.37;;
3543;SDS011;1786;52.870;9.578;2023-03-21T01:03:23;28.70;;;21.47;;
3543;SDS011;1786;52.870;9.578;2023-03-21T01:05:52;30.10;;;22.20;;
3543;SDS011;1786;52.870;9.578;2023-03-21T01:08:32;24.77;;;19.77;;
3543;SDS011;1786;52.870;9.578;2023-03-21T01:11:17;32.13;;;21.97;;
3543;SDS011;1786;52.870;9.578;2023-03-21T01:13:44;27.47;;;20.80;;
3543;SDS011;1786;52.870;9.578;2023-03-21T01:16:23;30.73;;;22.23;;
3543;SDS011;1786;52.870;9.578;2023-03-21T01:18:51;28.67;;;21.97;;
3543;SDS011;1786;52.870;9.578;2023-03-21T01:21:18;27.83;;;22.40;;
3543;SDS011;1786;52.870;9.578;2023-03-21T01:23:45;27.60;;;21.30;;
3543;SDS011;1786;52.870;9.578;2023-03-21T01:26:12;32.40;;;21.63;;
3543;SDS011;1786;52.870;9.578;2023-03-21T01:28:39;26.87;;;19.80;;
3543;SDS011;1786;52.870;9.578;2023-03-21T01:31:07;32.53;;;22.97;;
3543;SDS011;1786;52.870;9.578;2023-03-21T01:33:35;35.23;;;22.20;;
3543;SDS011;1786;52.870;9.578;2023-03-21T01:36:02;30.00;;;22.00;;
3543;SDS011;1786;52.870;9.578;2023-03-21T01:38:39;27.77;;;21.33;;
3543;SDS011;1786;52.870;9.578;2023-03-21T01:41:06;39.67;;;22.67;;
3543;SDS011;1786;52.870;9.578;2023-03-21T01:43:46;35.57;;;23.83;;
3543;SDS011;1786;52.870;9.578;2023-03-21T01:49:20;27.07;;;22.00;;
3543;SDS011;1786;52.870;9.578;2023-03-21T01:52:02;28.40;;;21.60;;
3543;SDS011;1786;52.870;9.578;2023-03-21T01:54:40;29.90;;;21.43;;
3543;SDS011;1786;52.870;9.578;2023-03-21T01:57:09;30.70;;;21.37;;
3543;SDS011;1786;52.870;9.578;2023-03-21T01:59:39;35.20;;;19.37;;
3543;SDS011;1786;52.870;9.578;2023-03-21T02:02:33;39.00;;;22.27;;
3543;SDS011;1786;52.870;9.578;2023-03-21T02:05:14;36.60;;;21.50;;
3543;SDS011;1786;52.870;9.578;2023-03-21T02:07:41;40.73;;;22.20;;
3543;SDS011;1786;52.870;9.578;2023-03-21T02:10:14;35.37;;;22.60;;
3543;SDS011;1786;52.870;9.578;2023-03-21T02:12:46;32.43;;;22.00;;
3543;SDS011;1786;52.870;9.578;2023-03-21T02:15:13;37.10;;;23.10;;
3543;SDS011;1786;52.870;9.578;2023-03-21T02:26:37;29.33;;;22.07;;
3543;SDS011;1786;52.870;9.578;2023-03-21T02:29:19;32.70;;;21.80;;
3543;SDS011;1786;52.870;9.578;2023-03-21T02:37:09;35.00;;;22.67;;
3543;SDS011;1786;52.870;9.578;2023-03-21T02:39:41;27.90;;;21.10;;
3543;SDS011;1786;52.870;9.578;2023-03-21T02:42:16;31.43;;;23.27;;
3543;SDS011;1786;52.870;9.578;2023-03-21T02:44:48;29.17;;;20.40;;
3543;SDS011;1786;52.870;9.578;2023-03-21T02:47:24;34.77;;;21.17;;
3543;SDS011;1786;52.870;9.578;2023-03-21T02:49:54;29.87;;;21.30;;
3543;SDS011;1786;52.870;9.578;2023-03-21T02:52:23;37.33;;;22.60;;
3543;SDS011;1786;52.870;9.578;2023-03-21T02:55:05;39.83;;;23.23;;
3543;SDS011;1786;52.870;9.578;2023-03-21T02:57:42;41.10;;;23.50;;
3543;SDS011;1786;52.870;9.578;2023-03-21T03:00:11;36.43;;;23.03;;
3543;SDS011;1786;52.870;9.578;2023-03-21T03:02:44;30.00;;;22.10;;
3543;SDS011;1786;52.870;9.578;2023-03-21T03:05:15;35.90;;;23.00;;
3543;SDS011;1786;52.870;9.578;2023-03-21T03:07:57;33.80;;;22.93;;
3543;SDS011;1786;52.870;9.578;2023-03-21T03:12:56;32.40;;;21.20;;
3543;SDS011;1786;52.870;9.578;2023-03-21T03:23:23;33.87;;;22.60;;
3543;SDS011;1786;52.870;9.578;2023-03-21T03:25:56;46.40;;;22.10;;
3543;SDS011;1786;52.870;9.578;2023-03-21T03:28:26;28.93;;;22.07;;
3543;SDS011;1786;52.870;9.578;2023-03-21T03:30:55;31.33;;;23.43;;
3543;SDS011;1786;52.870;9.578;2023-03-21T03:33:41;38.60;;;19.90;;
3543;SDS011;1786;52.870;9.578;2023-03-21T03:36:09;31.60;;;20.87;;
3543;SDS011;1786;52.870;9.578;2023-03-21T03:38:50;33.50;;;20.73;;
3543;SDS011;1786;52.870;9.578;2023-03-21T03:41:18;32.63;;;22.00;;
3543;SDS011;1786;52.870;9.578;2023-03-21T03:43:52;31.10;;;21.40;;
3543;SDS011;1786;52.870;9.578;2023-03-21T03:46:35;32.77;;;22.07;;
3543;SDS011;1786;52.870;9.578;2023-03-21T03:49:10;36.23;;;21.27;;
3543;SDS011;1786;52.870;9.578;2023-03-21T03:51:41;29.73;;;20.43;;
3543;SDS011;1786;52.870;9.578;2023-03-21T03:54:44;30.00;;;21.13;;
3543;SDS011;1786;52.870;9.578;2023-03-21T03:57:09;27.97;;;18.57;;
3543;SDS011;1786;52.870;9.578;2023-03-21T03:59:39;36.20;;;21.30;;
3543;SDS011;1786;52.870;9.578;2023-03-21T04:02:26;31.80;;;19.60;;
3543;SDS011;1786;52.870;9.578;2023-03-21T04:04:53;32.70;;;19.97;;
3543;SDS011;1786;52.870;9.578;2023-03-21T04:07:23;32.40;;;19.20;;
3543;SDS011;1786;52.870;9.578;2023-03-21T04:09:52;31.03;;;18.77;;
3543;SDS011;1786;52.870;9.578;2023-03-21T04:12:19;31.20;;;20.33;;
3543;SDS011;1786;52.870;9.578;2023-03-21T04:15:04;35.83;;;19.70;;
3543;SDS011;1786;52.870;9.578;2023-03-21T04:17:38;26.40;;;17.53;;
3543;SDS011;1786;52.870;9.578;2023-03-21T04:20:05;34.67;;;19.97;;
3543;SDS011;1786;52.870;9.578;2023-03-21T04:22:41;26.93;;;19.90;;
3543;SDS011;1786;52.870;9.578;2023-03-21T04:25:08;34.47;;;20.73;;
3543;SDS011;1786;52.870;9.578;2023-03-21T04:27:36;39.63;;;20.53;;
3543;SDS011;1786;52.870;9.578;2023-03-21T04:30:25;32.80;;;19.13;;
3543;SDS011;1786;52.870;9.578;2023-03-21T04:33:00;34.63;;;20.33;;
3543;SDS011;1786;52.870;9.578;2023-03-21T04:35:30;31.63;;;21.07;;
3543;SDS011;1786;52.870;9.578;2023-03-21T04:38:00;31.37;;;20.90;;
3543;SDS011;1786;52.870;9.578;2023-03-21T04:40:27;31.53;;;19.97;;
3543;SDS011;1786;52.870;9.578;2023-03-21T04:42:54;26.90;;;19.57;;
3543;SDS011;1786;52.870;9.578;2023-03-21T04:45:21;29.80;;;19.83;;
3543;SDS011;1786;52.870;9.578;2023-03-21T04:47:47;36.40;;;20.40;;
3543;SDS011;1786;52.870;9.578;2023-03-21T04:50:14;41.77;;;18.67;;
3543;SDS011;1786;52.870;9.578;2023-03-21T04:52:41;32.37;;;19.53;;
3543;SDS011;1786;52.870;9.578;2023-03-21T04:55:08;28.73;;;19.60;;
3543;SDS011;1786;52.870;9.578;2023-03-21T04:57:37;33.57;;;19.63;;
3543;SDS011;1786;52.870;9.578;2023-03-21T05:00:04;29.33;;;19.17;;
3543;SDS011;1786;52.870;9.578;2023-03-21T05:02:35;41.90;;;19.90;;
3543;SDS011;1786;52.870;9.578;2023-03-21T05:05:02;27.30;;;19.70;;
3543;SDS011;1786;52.870;9.578;2023-03-21T05:07:29;33.70;;;18.43;;
3543;SDS011;1786;52.870;9.578;2023-03-21T05:09:56;25.53;;;18.70;;
3543;SDS011;1786;52.870;9.578;2023-03-21T05:12:22;34.30;;;19.30;;
3543;SDS011;1786;52.870;9.578;2023-03-21T05:14:49;31.53;;;18.40;;
3543;SDS011;1786;52.870;9.578;2023-03-21T05:17:15;34.20;;;18.20;;
3543;SDS011;1786;52.870;9.578;2023-03-21T05:19:49;33.90;;;18.17;;
3543;SDS011;1786;52.870;9.578;2023-03-21T05:22:18;28.40;;;18.57;;
3543;SDS011;1786;52.870;9.578;2023-03-21T05:24:46;37.37;;;19.17;;
3543;SDS011;1786;52.870;9.578;2023-03-21T05:27:36;32.80;;;18.50;;
3543;SDS011;1786;52.870;9.578;2023-03-21T05:32:36;32.77;;;21.50;;
3543;SDS011;1786;52.870;9.578;2023-03-21T05:35:03;31.30;;;21.53;;
3543;SDS011;1786;52.870;9.578;2023-03-21T05:37:31;27.83;;;19.90;;
3543;SDS011;1786;52.870;9.578;2023-03-21T05:39:57;32.63;;;20.90;;
3543;SDS011;1786;52.870;9.578;2023-03-21T05:42:29;26.40;;;18.90;;
3543;SDS011;1786;52.870;9.578;2023-03-21T05:44:56;37.37;;;22.07;;
3543;SDS011;1786;52.870;9.578;2023-03-21T05:47:29;25.47;;;18.33;;
3543;SDS011;1786;52.870;9.578;2023-03-21T05:49:58;28.03;;;19.03;;
3543;SDS011;1786;52.870;9.578;2023-03-21T05:52:25;28.67;;;20.37;;
3543;SDS011;1786;52.870;9.578;2023-03-21T05:54:52;25.90;;;18.90;;
3543;SDS011;1786;52.870;9.578;2023-03-21T05:57:22;22.40;;;18.47;;
3543;SDS011;1786;52.870;9.578;2023-03-21T05:59:57;23.60;;;18.47;;
3543;SDS011;1786;52.870;9.578;2023-03-21T06:02:25;28.87;;;18.60;;
3543;SDS011;1786;52.870;9.578;2023-03-21T06:04:53;23.00;;;18.67;;
3543;SDS011;1786;52.870;9.578;2023-03-21T06:07:20;24.70;;;19.03;;
3543;SDS011;1786;52.870;9.578;2023-03-21T06:09:46;23.90;;;18.80;;
3543;SDS011;1786;52.870;9.578;2023-03-21T06:12:13;28.17;;;20.20;;
3543;SDS011;1786;52.870;9.578;2023-03-21T06:14:56;26.20;;;19.73;;
3543;SDS011;1786;52.870;9.578;2023-03-21T06:17:32;27.97;;;20.10;;
3543;SDS011;1786;52.870;9.578;2023-03-21T06:20:03;34.53;;;21.60;;
3543;SDS011;1786;52.870;9.578;2023-03-21T06:22:35;29.97;;;21.40;;
3543;SDS011;1786;52.870;9.578;2023-03-21T06:25:02;37.30;;;22.87;;
3543;SDS011;1786;52.870;9.578;2023-03-21T06:27:29;32.27;;;24.10;;
3543;SDS011;1786;52.870;9.578;2023-03-21T06:29:56;34.97;;;23.67;;
3543;SDS011;1786;52.870;9.578;2023-03-21T06:32:23;37.53;;;22.83;;
3543;SDS011;1786;52.870;9.578;2023-03-21T06:34:55;34.30;;;24.33;;
3543;SDS011;1786;52.870;9.578;2023-03-21T06:37:22;40.73;;;24.00;;
3543;SDS011;1786;52.870;9.578;2023-03-21T06:39:49;35.33;;;25.17;;
3543;SDS011;1786;52.870;9.578;2023-03-21T06:42:18;36.63;;;24.57;;
3543;SDS011;1786;52.870;9.578;2023-03-21T06:44:45;39.73;;;24.50;;
3543;SDS011;1786;52.870;9.578;2023-03-21T06:47:14;37.50;;;24.70;;
3543;SDS011;1786;52.870;9.578;2023-03-21T06:49:43;35.60;;;24.20;;
3543;SDS011;1786;52.870;9.578;2023-03-21T06:52:11;41.60;;;26.10;;
3543;SDS011;1786;52.870;9.578;2023-03-21T06:54:39;38.40;;;24.73;;
3543;SDS011;1786;52.870;9.578;2023-03-21T06:57:10;39.10;;;25.43;;
3543;SDS011;1786;52.870;9.578;2023-03-21T06:59:37;42.27;;;25.90;;
3543;SDS011;1786;52.870;9.578;2023-03-21T07:02:15;46.20;;;27.37;;
3543;SDS011;1786;52.870;9.578;2023-03-21T07:04:54;40.23;;;26.23;;
3543;SDS011;1786;52.870;9.578;2023-03-21T07:07:25;36.23;;;24.07;;
3543;SDS011;1786;52.870;9.578;2023-03-21T07:09:52;42.77;;;26.83;;
3543;SDS011;1786;52.870;9.578;2023-03-21T07:12:19;40.77;;;23.90;;
3543;SDS011;1786;52.870;9.578;2023-03-21T07:15:04;44.07;;;25.40;;
3543;SDS011;1786;52.870;9.578;2023-03-21T07:17:32;39.57;;;26.40;;
3543;SDS011;1786;52.870;9.578;2023-03-21T07:19:59;39.93;;;24.87;;
3543;SDS011;1786;52.870;9.578;2023-03-21T07:22:25;37.90;;;24.03;;
3543;SDS011;1786;52.870;9.578;2023-03-21T07:24:52;38.00;;;24.63;;
3543;SDS011;1786;52.870;9.578;2023-03-21T07:27:36;36.80;;;24.80;;
3543;SDS011;1786;52.870;9.578;2023-03-21T07:30:06;37.77;;;24.20;;
3543;SDS011;1786;52.870;9.578;2023-03-21T07:32:33;38.33;;;24.00;;
3543;SDS011;1786;52.870;9.578;2023-03-21T07:35:00;45.23;;;25.53;;
3543;SDS011;1786;52.870;9.578;2023-03-21T07:37:27;38.20;;;25.13;;
3543;SDS011;1786;52.870;9.578;2023-03-21T07:39:55;46.93;;;24.77;;
3543;SDS011;1786;52.870;9.578;2023-03-21T07:42:23;42.27;;;25.50;;
3543;SDS011;1786;52.870;9.578;2023-03-21T07:44:56;47.30;;;26.43;;
3543;SDS011;1786;52.870;9.578;2023-03-21T07:47:23;37.40;;;25.63;;
3543;SDS011;1786;52.870;9.578;2023-03-21T07:49:50;36.37;;;24.20;;
3543;SDS011;1786;52.870;9.578;2023-03-21T07:52:16;40.53;;;25.83;;
3543;SDS011;1786;52.870;9.578;2023-03-21T07:54:43;43.00;;;24.80;;
3543;SDS011;1786;52.870;9.578;2023-03-21T07:57:09;35.63;;;22.87;;
3543;SDS011;1786;52.870;9.578;2023-03-21T07:59:39;40.97;;;22.80;;
3543;SDS011;1786;52.870;9.578;2023-03-21T08:02:05;33.43;;;22.37;;
3543;SDS011;1786;52.870;9.578;2023-03-21T08:04:32;34.33;;;22.00;;
3543;SDS011;1786;52.870;9.578;2023-03-21T08:07:02;32.83;;;21.87;;
3543;SDS011;1786;52.870;9.578;2023-03-21T08:09:29;33.60;;;21.43;;
3543;SDS011;1786;52.870;9.578;2023-03-21T08:11:57;35.57;;;20.17;;
3543;SDS011;1786;52.870;9.578;2023-03-21T08:14:23;34.93;;;21.47;;
3543;SDS011;1786;52.870;9.578;2023-03-21T08:16:49;35.90;;;19.77;;
3543;SDS011;1786;52.870;9.578;2023-03-21T08:19:16;30.27;;;19.77;;
3543;SDS011;1786;52.870;9.578;2023-03-21T08:21:49;29.30;;;19.80;;
3543;SDS011;1786;52.870;9.578;2023-03-21T08:24:17;30.33;;;19.57;;
3543;SDS011;1786;52.870;9.578;2023-03-21T08:26:44;35.80;;;21.33;;
3543;SDS011;1786;52.870;9.578;2023-03-21T08:29:12;30.70;;;19.50;;
3543;SDS011;1786;52.870;9.578;2023-03-21T08:31:39;35.80;;;20.80;;
3543;SDS011;1786;52.870;9.578;2023-03-21T08:34:06;34.47;;;21.93;;
3543;SDS011;1786;52.870;9.578;2023-03-21T08:36:34;35.43;;;20.10;;
3543;SDS011;1786;52.870;9.578;2023-03-21T08:39:02;36.50;;;20.97;;
3543;SDS011;1786;52.870;9.578;2023-03-21T08:41:31;32.60;;;19.03;;
3543;SDS011;1786;52.870;9.578;2023-03-21T08:43:57;26.87;;;19.17;;
3543;SDS011;1786;52.870;9.578;2023-03-21T08:46:24;31.43;;;19.90;;
3543;SDS011;1786;52.870;9.578;2023-03-21T08:48:51;30.67;;;19.00;;
3543;SDS011;1786;52.870;9.578;2023-03-21T08:51:18;29.10;;;18.30;;
3543;SDS011;1786;52.870;9.578;2023-03-21T08:53:44;24.47;;;18.20;;
3543;SDS011;1786;52.870;9.578;2023-03-21T08:56:11;37.40;;;19.43;;
3543;SDS011;1786;52.870;9.578;2023-03-21T08:58:38;36.57;;;20.30;;
3543;SDS011;1786;52.870;9.578;2023-03-21T09:01:04;36.40;;;19.10;;
3543;SDS011;1786;52.870;9.578;2023-03-21T09:03:40;34.30;;;19.70;;
3543;SDS011;1786;52.870;9.578;2023-03-21T09:06:08;34.77;;;20.50;;
3543;SDS011;1786;52.870;9.578;2023-03-21T09:08:37;30.93;;;19.40;;
3543;SDS011;1786;52.870;9.578;2023-03-21T09:11:03;27.77;;;18.20;;
3543;SDS011;1786;52.870;9.578;2023-03-21T09:13:30;32.60;;;17.30;;
3543;SDS011;1786;52.870;9.578;2023-03-21T09:15:56;37.80;;;17.17;;
3543;SDS011;1786;52.870;9.578;2023-03-21T09:18:26;35.17;;;19.40;;
3543;SDS011;1786;52.870;9.578;2023-03-21T09:21:10;32.30;;;17.50;;
3543;SDS011;1786;52.870;9.578;2023-03-21T09:23:41;29.93;;;15.67;;
3543;SDS011;1786;52.870;9.578;2023-03-21T09:26:10;31.17;;;17.23;;
3543;SDS011;1786;52.870;9.578;2023-03-21T09:28:36;26.53;;;16.73;;
3543;SDS011;1786;52.870;9.578;2023-03-21T09:31:04;34.70;;;17.50;;
3543;SDS011;1786;52.870;9.578;2023-03-21T09:33:31;26.53;;;18.00;;
3543;SDS011;1786;52.870;9.578;2023-03-21T09:35:58;25.47;;;17.30;;
3543;SDS011;1786;52.870;9.578;2023-03-21T09:38:25;29.20;;;16.60;;
3543;SDS011;1786;52.870;9.578;2023-03-21T09:43:47;24.73;;;16.07;;
3543;SDS011;1786;52.870;9.578;2023-03-21T09:49:03;28.77;;;15.93;;
3543;SDS011;1786;52.870;9.578;2023-03-21T09:51:39;21.80;;;15.47;;
3543;SDS011;1786;52.870;9.578;2023-03-21T09:54:10;27.83;;;13.80;;
3543;SDS011;1786;52.870;9.578;2023-03-21T09:56:39;25.20;;;14.53;;
3543;SDS011;1786;52.870;9.578;2023-03-21T09:59:06;25.50;;;15.13;;
3543;SDS011;1786;52.870;9.578;2023-03-21T10:01:34;21.43;;;14.10;;
3543;SDS011;1786;52.870;9.578;2023-03-21T10:04:09;20.07;;;13.40;;
3543;SDS011;1786;52.870;9.578;2023-03-21T10:06:38;22.80;;;13.23;;
3543;SDS011;1786;52.870;9.578;2023-03-21T10:09:16;25.23;;;13.47;;
3543;SDS011;1786;52.870;9.578;2023-03-21T10:11:49;21.23;;;13.87;;
3543;SDS011;1786;52.870;9.578;2023-03-21T10:14:18;23.60;;;13.70;;
3543;SDS011;1786;52.870;9.578;2023-03-21T10:16:55;21.33;;;14.27;;
3543;SDS011;1786;52.870;9.578;2023-03-21T10:19:22;22.17;;;13.50;;
3543;SDS011;1786;52.870;9.578;2023-03-21T10:21:50;24.73;;;15.00;;
3543;SDS011;1786;52.870;9.578;2023-03-21T10:24:32;24.93;;;13.17;;
3543;SDS011;1786;52.870;9.578;2023-03-21T10:27:00;40.03;;;15.40;;
3543;SDS011;1786;52.870;9.578;2023-03-21T10:29:29;25.03;;;14.97;;
3543;SDS011;1786;52.870;9.578;2023-03-21T10:31:57;21.63;;;14.47;;
3543;SDS011;1786;52.870;9.578;2023-03-21T10:34:29;24.97;;;14.00;;
3543;SDS011;1786;52.870;9.578;2023-03-21T10:36:57;27.13;;;15.40;;
3543;SDS011;1786;52.870;9.578;2023-03-21T10:39:31;19.10;;;14.27;;
3543;SDS011;1786;52.870;9.578;2023-03-21T10:41:59;24.33;;;13.97;;
3543;SDS011;1786;52.870;9.578;2023-03-21T10:44:29;24.17;;;15.83;;
3543;SDS011;1786;52.870;9.578;2023-03-21T10:46:57;25.60;;;15.93;;
3543;SDS011;1786;52.870;9.578;2023-03-21T10:49:24;23.43;;;16.30;;
3543;SDS011;1786;52.870;9.578;2023-03-21T10:51:52;24.60;;;15.03;;
3543;SDS011;1786;52.870;9.578;2023-03-21T10:54:21;24.53;;;14.87;;
3543;SDS011;1786;52.870;9.578;2023-03-21T10:57:05;19.47;;;14.53;;
3543;SDS011;1786;52.870;9.578;2023-03-21T10:59:43;23.40;;;13.90;;
3543;SDS011;1786;52.870;9.578;2023-03-21T11:02:16;21.20;;;14.30;;
3543;SDS011;1786;52.870;9.578;2023-03-21T11:04:43;23.50;;;14.30;;
3543;SDS011;1786;52.870;9.578;2023-03-21T11:07:11;20.07;;;14.20;;
3543;SDS011;1786;52.870;9.578;2023-03-21T11:12:10;21.53;;;13.10;;
3543;SDS011;1786;52.870;9.578;2023-03-21T11:17:50;14.57;;;12.07;;
3543;SDS011;1786;52.870;9.578;2023-03-21T11:19:58;19.90;;;12.87;;
3543;SDS011;1786;52.870;9.578;2023-03-21T11:22:29;13.37;;;11.30;;
3543;SDS011;1786;52.870;9.578;2023-03-21T11:24:57;18.17;;;12.97;;
3543;SDS011;1786;52.870;9.578;2023-03-21T11:27:26;19.50;;;12.10;;
3543;SDS011;1786;52.870;9.578;2023-03-21T11:29:54;22.30;;;12.97;;
3543;SDS011;1786;52.870;9.578;2023-03-21T11:32:30;16.63;;;12.43;;
3543;SDS011;1786;52.870;9.578;2023-03-21T11:34:58;19.40;;;12.97;;
3543;SDS011;1786;52.870;9.578;2023-03-21T11:37:27;18.20;;;12.67;;
3543;SDS011;1786;52.870;9.578;2023-03-21T11:42:42;19.27;;;13.80;;
3543;SDS011;1786;52.870;9.578;2023-03-21T11:45:31;17.47;;;13.60;;
3543;SDS011;1786;52.870;9.578;2023-03-21T11:48:00;16.00;;;11.43;;
3543;SDS011;1786;52.870;9.578;2023-03-21T11:50:28;12.67;;;11.43;;
3543;SDS011;1786;52.870;9.578;2023-03-21T11:53:03;18.27;;;11.00;;
3543;SDS011;1786;52.870;9.578;2023-03-21T11:58:27;13.50;;;11.07;;
3543;SDS011;1786;52.870;9.578;2023-03-21T12:01:19;10.40;;;9.30;;
3543;SDS011;1786;52.870;9.578;2023-03-21T12:06:36;14.30;;;10.20;;
3543;SDS011;1786;52.870;9.578;2023-03-21T12:14:19;11.70;;;9.03;;
3543;SDS011;1786;52.870;9.578;2023-03-21T12:16:53;12.10;;;8.40;;
3543;SDS011;1786;52.870;9.578;2023-03-21T12:19:25;11.93;;;9.23;;
3543;SDS011;1786;52.870;9.578;2023-03-21T12:22:19;11.93;;;8.77;;
3543;SDS011;1786;52.870;9.578;2023-03-21T12:25:29;11.33;;;9.63;;
3543;SDS011;1786;52.870;9.578;2023-03-21T12:27:34;13.27;;;9.40;;
3543;SDS011;1786;52.870;9.578;2023-03-21T12:32:42;12.27;;;9.50;;
3543;SDS011;1786;52.870;9.578;2023-03-21T12:42:46;11.80;;;9.47;;
3543;SDS011;1786;52.870;9.578;2023-03-21T12:45:25;13.27;;;9.37;;
3543;SDS011;1786;52.870;9.578;2023-03-21T12:48:12;13.50;;;9.97;;
3543;SDS011;1786;52.870;9.578;2023-03-21T12:50:40;11.67;;;9.57;;
3543;SDS011;1786;52.870;9.578;2023-03-21T12:53:51;16.53;;;10.07;;
3543;SDS011;1786;52.870;9.578;2023-03-21T12:56:02;10.60;;;8.07;;
3543;SDS011;1786;52.870;9.578;2023-03-21T12:58:30;13.27;;;8.57;;
3543;SDS011;1786;52.870;9.578;2023-03-21T13:01:01;13.50;;;9.00;;
3543;SDS011;1786;52.870;9.578;2023-03-21T13:03:41;15.27;;;9.50;;
3543;SDS011;1786;52.870;9.578;2023-03-21T13:06:12;16.53;;;10.30;;
3543;SDS011;1786;52.870;9.578;2023-03-21T13:11:10;12.37;;;9.90;;
3543;SDS011;1786;52.870;9.578;2023-03-21T13:13:43;12.40;;;10.43;;
3543;SDS011;1786;52.870;9.578;2023-03-21T13:16:12;13.93;;;9.70;;
3543;SDS011;1786;52.870;9.578;2023-03-21T13:21:27;12.60;;;9.50;;
3543;SDS011;1786;52.870;9.578;2023-03-21T13:24:00;15.73;;;9.70;;
3543;SDS011;1786;52.870;9.578;2023-03-21T13:26:37;11.53;;;8.43;;
3543;SDS011;1786;52.870;9.578;2023-03-21T13:29:25;14.43;;;9.13;;
3543;SDS011;1786;52.870;9.578;2023-03-21T13:31:53;13.23;;;8.90;;
3543;SDS011;1786;52.870;9.578;2023-03-21T13:34:23;13.10;;;8.10;;
3543;SDS011;1786;52.870;9.578;2023-03-21T13:36:50;10.70;;;8.60;;
3543;SDS011;1786;52.870;9.578;2023-03-21T13:39:18;12.57;;;8.40;;
3543;SDS011;1786;52.870;9.578;2023-03-21T13:41:45;13.10;;;9.03;;
3543;SDS011;1786;52.870;9.578;2023-03-21T13:49:31;17.60;;;9.40;;
3543;SDS011;1786;52.870;9.578;2023-03-21T13:51:58;13.10;;;8.37;;
3543;SDS011;1786;52.870;9.578;2023-03-21T13:54:29;13.33;;;8.90;;
3543;SDS011;1786;52.870;9.578;2023-03-21T13:57:19;14.60;;;8.83;;
3543;SDS011;1786;52.870;9.578;2023-03-21T13:59:46;13.43;;;8.90;;
3543;SDS011;1786;52.870;9.578;2023-03-21T14:02:27;14.43;;;9.43;;
3543;SDS011;1786;52.870;9.578;2023-03-21T14:04:56;12.70;;;8.10;;
3543;SDS011;1786;52.870;9.578;2023-03-21T14:07:33;11.90;;;9.07;;
3543;SDS011;1786;52.870;9.578;2023-03-21T14:10:00;11.47;;;8.57;;
3543;SDS011;1786;52.870;9.578;2023-03-21T14:12:33;9.60;;;7.77;;
3543;SDS011;1786;52.870;9.578;2023-03-21T14:17:55;10.13;;;9.13;;
3543;SDS011;1786;52.870;9.578;2023-03-21T14:20:27;14.03;;;8.83;;
3543;SDS011;1786;52.870;9.578;2023-03-21T14:22:54;13.23;;;8.20;;
3543;SDS011;1786;52.870;9.578;2023-03-21T14:25:21;15.07;;;8.03;;
3543;SDS011;1786;52.870;9.578;2023-03-21T14:27:54;14.10;;;8.90;;
3543;SDS011;1786;52.870;9.578;2023-03-21T14:30:26;10.67;;;7.63;;
3543;SDS011;1786;52.870;9.578;2023-03-21T14:32:57;9.30;;;7.17;;
3543;SDS011;1786;52.870;9.578;2023-03-21T14:35:24;16.63;;;8.87;;
3543;SDS011;1786;52.870;9.578;2023-03-21T14:37:53;13.80;;;7.27;;
3543;SDS011;1786;52.870;9.578;2023-03-21T14:40:22;10.63;;;8.20;;
3543;SDS011;1786;52.870;9.578;2023-03-21T14:42:49;11.70;;;9.00;;
3543;SDS011;1786;52.870;9.578;2023-03-21T14:53:10;10.57;;;7.83;;
3543;SDS011;1786;52.870;9.578;2023-03-21T14:55:40;10.93;;;8.10;;
3543;SDS011;1786;52.870;9.578;2023-03-21T14:58:09;11.53;;;8.70;;
3543;SDS011;1786;52.870;9.578;2023-03-21T15:00:36;18.50;;;7.97;;
3543;SDS011;1786;52.870;9.578;2023-03-21T15:03:02;11.17;;;7.27;;
3543;SDS011;1786;52.870;9.578;2023-03-21T15:08:13;9.60;;;7.53;;
3543;SDS011;1786;52.870;9.578;2023-03-21T15:10:40;7.70;;;7.00;;
3543;SDS011;1786;52.870;9.578;2023-03-21T15:13:12;14.03;;;7.43;;
3543;SDS011;1786;52.870;9.578;2023-03-21T15:15:39;8.13;;;6.87;;
3543;SDS011;1786;52.870;9.578;2023-03-21T15:18:06;13.97;;;6.50;;
3543;SDS011;1786;52.870;9.578;2023-03-21T15:20:34;10.53;;;6.70;;
3543;SDS011;1786;52.870;9.578;2023-03-21T15:23:03;12.30;;;7.33;;
3543;SDS011;1786;52.870;9.578;2023-03-21T15:25:33;11.70;;;6.83;;
3543;SDS011;1786;52.870;9.578;2023-03-21T15:28:00;7.37;;;6.60;;
3543;SDS011;1786;52.870;9.578;2023-03-21T15:30:28;7.30;;;6.33;;
3543;SDS011;1786;52.870;9.578;2023-03-21T15:32:55;9.33;;;6.70;;
3543;SDS011;1786;52.870;9.578;2023-03-21T15:35:26;10.13;;;7.00;;
3543;SDS011;1786;52.870;9.578;2023-03-21T15:37:55;7.87;;;7.07;;
3543;SDS011;1786;52.870;9.578;2023-03-21T15:40:24;11.03;;;7.50;;
3543;SDS011;1786;52.870;9.578;2023-03-21T15:42:51;7.97;;;6.97;;
3543;SDS011;1786;52.870;9.578;2023-03-21T15:45:28;6.83;;;6.13;;
3543;SDS011;1786;52.870;9.578;2023-03-21T15:48:00;7.37;;;6.10;;
3543;SDS011;1786;52.870;9.578;2023-03-21T15:50:31;9.53;;;6.87;;
3543;SDS011;1786;52.870;9.578;2023-03-21T15:52:59;11.63;;;7.00;;
3543;SDS011;1786;52.870;9.578;2023-03-21T15:55:30;8.93;;;6.97;;
3543;SDS011;1786;52.870;9.578;2023-03-21T15:58:05;8.10;;;7.20;;
3543;SDS011;1786;52.870;9.578;2023-03-21T16:00:37;6.27;;;5.70;;
3543;SDS011;1786;52.870;9.578;2023-03-21T16:03:12;7.77;;;6.97;;
3543;SDS011;1786;52.870;9.578;2023-03-21T16:05:42;13.07;;;7.77;;
3543;SDS011;1786;52.870;9.578;2023-03-21T16:08:21;13.23;;;7.30;;
3543;SDS011;1786;52.870;9.578;2023-03-21T16:10:51;12.73;;;7.73;;
3543;SDS011;1786;52.870;9.578;2023-03-21T16:13:18;10.73;;;6.70;;
3543;SDS011;1786;52.870;9.578;2023-03-21T16:15:45;17.17;;;7.70;;
3543;SDS011;1786;52.870;9.578;2023-03-21T16:18:13;7.70;;;6.90;;
3543;SDS011;1786;52.870;9.578;2023-03-21T16:20:44;11.50;;;7.63;;
3543;SDS011;1786;52.870;9.578;2023-03-21T16:23:11;9.50;;;6.73;;
3543;SDS011;1786;52.870;9.578;2023-03-21T16:25:38;15.93;;;6.70;;
3543;SDS011;1786;52.870;9.578;2023-03-21T16:28:09;8.80;;;6.87;;
3543;SDS011;1786;52.870;9.578;2023-03-21T16:30:35;6.67;;;5.60;;
3543;SDS011;1786;52.870;9.578;2023-03-21T16:33:03;9.67;;;6.70;;
3543;SDS011;1786;52.870;9.578;2023-03-21T16:35:30;7.60;;;6.80;;
3543;SDS011;1786;52.870;9.578;2023-03-21T16:37:57;7.47;;;6.77;;
3543;SDS011;1786;52.870;9.578;2023-03-21T16:40:25;9.93;;;7.27;;
3543;SDS011;1786;52.870;9.578;2023-03-21T16:42:53;10.23;;;6.73;;